createdAt,value
2022-09-12T00:01:21.321Z,57.26
2022-09-12T00:03:52.445Z,58.31
2022-09-12T00:06:23.373Z,59.07
2022-09-12T00:08:51.682Z,60.54
2022-09-12T00:11:19.859Z,61.80
2022-09-12T00:13:48.022Z,63.12
2022-09-12T00:16:19.033Z,63.50
2022-09-12T00:18:47.903Z,63.31
2022-09-12T00:21:16.947Z,62.93
2022-09-12T00:23:45.440Z,63.04
2022-09-12T00:26:14.365Z,63.70
2022-09-12T00:28:43.498Z,64.02
2022-09-12T00:31:14.907Z,64.36
2022-09-12T00:33:44.983Z,64.72
2022-09-12T00:36:15.465Z,65.97
2022-09-12T00:38:44.468Z,68.70
2022-09-12T00:41:17.471Z,69.60
2022-09-12T00:43:47.930Z,70.08
2022-09-12T00:46:27.008Z,71.45
2022-09-12T00:49:01.214Z,73.24
2022-09-12T00:51:31.736Z,74.21
2022-09-12T00:54:02.080Z,75.16
2022-09-12T00:56:30.874Z,76.42
2022-09-12T00:59:03.722Z,78.73
2022-09-12T01:01:32.894Z,80.61
2022-09-12T01:04:03.222Z,84.27
2022-09-12T01:06:37.081Z,83.95
2022-09-12T01:09:05.837Z,87.20
2022-09-12T01:11:37.208Z,86.96
2022-09-12T01:14:05.301Z,87.52
2022-09-12T01:16:36.161Z,88.98
2022-09-12T01:19:21.502Z,91.06
2022-09-12T01:22:07.273Z,94.19
2022-09-12T01:24:55.677Z,94.12
2022-09-12T01:27:43.465Z,94.61
2022-09-12T01:30:41.192Z,94.91
2022-09-12T01:33:41.290Z,95.17
2022-09-12T01:36:35.909Z,95.34
2022-09-12T01:39:07.545Z,96.24
2022-09-12T01:41:50.031Z,97.81
2022-09-12T01:44:27.439Z,99.61
2022-09-12T01:46:59.423Z,99.82
2022-09-12T01:49:34.624Z,100.00
2022-09-12T01:52:11.010Z,100.00
2022-09-12T01:54:44.635Z,100.00
2022-09-12T01:57:20.019Z,100.00
2022-09-12T01:59:51.965Z,100.00
2022-09-12T02:02:26.614Z,100.00
2022-09-12T02:05:00.503Z,98.97
2022-09-12T02:07:35.858Z,98.71
2022-09-12T02:10:09.763Z,97.45
2022-09-12T02:12:43.550Z,95.77
2022-09-12T02:15:14.267Z,96.00
2022-09-12T02:17:45.717Z,96.72
2022-09-12T02:20:37.420Z,96.75
2022-09-12T02:23:13.157Z,96.95
2022-09-12T02:25:45.737Z,97.41
2022-09-12T02:28:16.752Z,97.26
2022-09-12T02:30:51.933Z,97.76
2022-09-12T02:33:28.457Z,98.65
2022-09-12T02:36:03.383Z,99.48
2022-09-12T02:38:37.322Z,99.57
2022-09-12T02:41:05.687Z,99.37
2022-09-12T02:43:33.992Z,98.86
2022-09-12T02:46:02.211Z,97.99
2022-09-12T02:48:35.172Z,98.90
2022-09-12T02:51:05.164Z,99.54
2022-09-12T02:53:33.855Z,100.00
2022-09-12T02:56:02.254Z,98.40
2022-09-12T02:58:33.684Z,97.90
2022-09-12T03:01:09.573Z,97.75
2022-09-12T03:03:55.414Z,97.46
2022-09-12T03:06:39.088Z,100.00
2022-09-12T03:09:13.947Z,100.00
2022-09-12T03:12:01.992Z,98.49
2022-09-12T03:15:02.427Z,96.02
2022-09-12T03:17:42.533Z,95.50
2022-09-12T03:20:12.938Z,92.94
2022-09-12T03:22:51.491Z,92.63
2022-09-12T03:25:23.597Z,90.45
2022-09-12T03:27:57.854Z,90.19
2022-09-12T03:30:26.588Z,90.79
2022-09-12T03:32:56.158Z,90.12
2022-09-12T03:35:26.215Z,89.45
2022-09-12T03:37:55.701Z,87.05
2022-09-12T03:40:23.875Z,86.57
2022-09-12T03:42:52.011Z,86.32
2022-09-12T03:45:20.178Z,86.61
2022-09-12T03:47:49.241Z,87.03
2022-09-12T03:50:17.417Z,87.16
2022-09-12T03:52:45.767Z,87.48
2022-09-12T03:55:15.503Z,86.21
2022-09-12T03:57:43.679Z,85.51
2022-09-12T04:00:16.415Z,85.70
2022-09-12T04:02:47.250Z,85.70
2022-09-12T04:05:15.647Z,85.71
2022-09-12T04:07:43.846Z,86.52
2022-09-12T04:10:12.056Z,87.05
2022-09-12T04:12:41.577Z,87.98
2022-09-12T04:15:11.275Z,88.14
2022-09-12T04:17:39.387Z,88.06
2022-09-12T04:20:09.983Z,87.23
2022-09-12T04:22:38.052Z,86.70
2022-09-12T04:25:07.142Z,85.93
2022-09-12T04:27:35.434Z,84.85
2022-09-12T04:30:05.782Z,84.41
2022-09-12T04:32:33.856Z,83.74
2022-09-12T04:35:02.268Z,84.25
2022-09-12T04:37:30.401Z,83.93
2022-09-12T04:39:59.305Z,83.21
2022-09-12T04:42:27.420Z,83.53
2022-09-12T04:44:55.605Z,83.57
2022-09-12T04:47:25.115Z,83.21
2022-09-12T04:49:53.281Z,84.71
2022-09-12T04:52:21.442Z,85.40
2022-09-12T04:54:49.547Z,83.97
2022-09-12T04:57:17.817Z,83.87
2022-09-12T04:59:45.983Z,83.35
2022-09-12T05:02:14.164Z,82.95
2022-09-12T05:04:43.651Z,83.28
2022-09-12T05:07:11.812Z,84.04
2022-09-12T05:09:39.932Z,83.46
2022-09-12T05:12:09.523Z,84.25
2022-09-12T05:14:37.679Z,87.01
2022-09-12T05:17:06.590Z,86.68
2022-09-12T05:19:34.903Z,86.92
2022-09-12T05:22:05.131Z,86.44
2022-09-12T05:24:33.319Z,85.05
2022-09-12T05:27:03.461Z,83.43
2022-09-12T05:29:31.625Z,82.49
2022-09-12T05:31:59.787Z,81.37
2022-09-12T05:34:28.751Z,80.89
2022-09-12T05:36:56.912Z,82.24
2022-09-12T05:39:26.417Z,84.99
2022-09-12T05:41:54.537Z,86.02
2022-09-12T05:44:22.643Z,87.17
2022-09-12T05:46:51.455Z,85.10
2022-09-12T05:49:19.543Z,85.28
2022-09-12T05:51:47.776Z,83.56
2022-09-12T05:54:18.882Z,81.82
2022-09-12T05:56:49.213Z,83.46
2022-09-12T05:59:19.590Z,83.78
2022-09-12T06:01:47.986Z,84.51
2022-09-12T06:04:16.822Z,83.88
2022-09-12T06:06:46.428Z,81.74
2022-09-12T06:09:15.674Z,81.29
2022-09-12T06:11:44.954Z,79.78
2022-09-12T06:14:16.613Z,76.53
2022-09-12T06:16:45.060Z,73.79
2022-09-12T06:19:17.150Z,71.69
2022-09-12T06:21:46.156Z,67.08
2022-09-12T06:24:14.446Z,61.41
2022-09-12T06:26:43.823Z,59.12
2022-09-12T06:29:14.470Z,55.14
2022-09-12T06:31:44.157Z,57.18
2022-09-12T06:34:14.144Z,60.43
2022-09-12T06:36:43.999Z,57.54
2022-09-12T06:39:13.696Z,59.63
2022-09-12T06:41:44.305Z,60.95
2022-09-12T06:44:16.970Z,59.62
2022-09-12T06:46:45.437Z,54.41
2022-09-12T06:49:13.812Z,50.56
2022-09-12T06:51:43.320Z,50.96
2022-09-12T06:54:14.409Z,49.39
2022-09-12T06:56:42.905Z,51.11
2022-09-12T06:59:11.202Z,48.93
2022-09-12T07:01:41.872Z,54.27
2022-09-12T07:04:10.555Z,56.39
2022-09-12T07:06:40.727Z,55.95
2022-09-12T07:09:11.528Z,61.24
2022-09-12T07:11:42.161Z,59.85
2022-09-12T07:14:14.123Z,59.23
2022-09-12T07:16:44.134Z,59.03
2022-09-12T07:19:12.741Z,58.62
2022-09-12T07:21:41.745Z,59.32
2022-09-12T07:24:11.244Z,59.59
2022-09-12T07:26:42.257Z,58.95
2022-09-12T07:32:05.745Z,59.36
2022-09-12T07:34:34.301Z,55.79
2022-09-12T07:37:02.432Z,56.29
2022-09-12T07:39:30.576Z,54.05
2022-09-12T07:41:58.831Z,55.85
2022-09-12T07:44:27.053Z,53.84
2022-09-12T07:46:55.116Z,53.44
2022-09-12T07:49:24.606Z,53.35
2022-09-12T07:51:53.245Z,53.46
2022-09-12T07:54:21.771Z,51.89
2022-09-12T07:56:49.854Z,53.27
2022-09-12T07:59:30.202Z,50.85
2022-09-12T08:02:06.240Z,49.79
2022-09-12T08:04:36.512Z,46.48
2022-09-12T08:07:04.672Z,47.46
2022-09-12T08:09:32.756Z,48.88
2022-09-12T08:12:00.830Z,47.55
2022-09-12T08:14:29.776Z,47.38
2022-09-12T08:16:57.814Z,46.65
2022-09-12T08:19:25.938Z,46.43
2022-09-12T08:21:55.402Z,47.11
2022-09-12T08:24:24.991Z,46.56
2022-09-12T08:26:53.073Z,45.76
2022-09-12T08:29:21.493Z,45.23
2022-09-12T08:31:51.920Z,44.98
2022-09-12T08:34:25.033Z,44.35
2022-09-12T08:36:54.364Z,45.95
2022-09-12T08:39:24.694Z,46.62
2022-09-12T08:42:03.175Z,46.76
2022-09-12T08:45:06.055Z,45.47
2022-09-12T08:47:38.005Z,45.10
2022-09-12T08:50:15.378Z,43.83
2022-09-12T08:52:52.005Z,44.00
2022-09-12T08:55:32.795Z,42.31
2022-09-12T08:58:01.816Z,42.00
2022-09-12T09:00:40.627Z,44.22
2022-09-12T09:03:44.453Z,42.14
2022-09-12T09:06:23.775Z,41.47
2022-09-12T09:09:03.634Z,41.23
2022-09-12T09:11:48.213Z,40.67
2022-09-12T09:14:51.742Z,41.09
2022-09-12T09:17:25.316Z,41.02
2022-09-12T09:19:59.874Z,42.42
2022-09-12T09:22:39.422Z,42.18
2022-09-12T09:25:12.771Z,41.96
2022-09-12T09:27:48.120Z,42.57
2022-09-12T09:30:18.631Z,44.35
2022-09-12T09:32:51.761Z,44.98
2022-09-12T09:35:26.223Z,44.02
2022-09-12T09:38:03.624Z,44.05
2022-09-12T09:40:47.017Z,44.54
2022-09-12T09:43:23.955Z,43.86
2022-09-12T09:45:54.097Z,44.86
2022-09-12T09:48:26.722Z,44.79
2022-09-12T09:50:54.999Z,43.00
2022-09-12T09:53:33.210Z,42.84
2022-09-12T09:56:04.275Z,42.28
2022-09-12T09:58:36.415Z,42.51
2022-09-12T10:01:07.265Z,42.02
2022-09-12T10:03:39.195Z,43.23
2022-09-12T10:06:26.517Z,43.59
2022-09-12T10:09:07.400Z,43.64
2022-09-12T10:11:35.790Z,45.08
2022-09-12T10:14:05.364Z,45.40
2022-09-12T10:16:35.134Z,45.36
2022-09-12T10:19:04.937Z,47.01
2022-09-12T10:21:35.329Z,45.45
2022-09-12T10:24:17.684Z,45.75
2022-09-12T10:26:56.418Z,43.09
2022-09-12T10:29:28.700Z,42.70
2022-09-12T10:32:00.505Z,43.39
2022-09-12T10:34:32.544Z,44.22
2022-09-12T10:37:05.564Z,44.85
2022-09-12T10:39:36.170Z,45.36
2022-09-12T10:42:05.713Z,46.14
2022-09-12T10:44:36.249Z,46.68
2022-09-12T10:47:23.299Z,46.07
2022-09-12T10:49:51.436Z,45.75
2022-09-12T10:52:24.460Z,46.05
2022-09-12T10:54:52.712Z,46.54
2022-09-12T10:57:44.352Z,47.79
2022-09-12T11:00:17.607Z,47.13
2022-09-12T11:02:53.356Z,47.01
2022-09-12T11:05:39.131Z,46.92
2022-09-12T11:08:24.664Z,47.44
2022-09-12T11:10:59.234Z,48.24
2022-09-12T11:13:41.724Z,47.96
2022-09-12T11:16:23.320Z,48.23
2022-09-12T11:19:12.250Z,47.84
2022-09-12T11:21:59.113Z,47.75
2022-09-12T11:24:50.822Z,47.70
2022-09-12T11:27:35.706Z,46.52
2022-09-12T11:30:07.638Z,45.50
2022-09-12T11:33:11.098Z,45.00
2022-09-12T11:35:53.049Z,45.25
2022-09-12T11:38:52.007Z,46.23
2022-09-12T11:41:26.268Z,46.36
2022-09-12T11:44:01.474Z,47.64
2022-09-12T11:46:36.821Z,47.54
2022-09-12T11:49:16.434Z,48.03
2022-09-12T11:51:51.271Z,48.25
2022-09-12T11:54:25.997Z,49.18
2022-09-12T11:57:01.909Z,48.37
2022-09-12T11:59:42.579Z,47.13
2022-09-12T12:02:15.326Z,46.78
2022-09-12T12:04:57.262Z,45.82
2022-09-12T12:07:26.772Z,44.99
2022-09-12T12:09:55.733Z,46.55
2022-09-12T12:12:29.468Z,44.71
2022-09-12T12:14:59.115Z,45.43
2022-09-12T12:17:29.722Z,45.81
2022-09-12T12:20:05.799Z,46.10
2022-09-12T12:22:38.187Z,46.76
2022-09-12T12:25:28.843Z,46.65
2022-09-12T12:28:04.186Z,47.37
2022-09-12T12:31:03.349Z,47.46
2022-09-12T12:34:07.933Z,45.63
2022-09-12T12:36:46.426Z,45.64
2022-09-12T12:40:01.130Z,45.69
2022-09-12T12:43:04.663Z,47.29
2022-09-12T12:46:13.015Z,48.57
2022-09-12T12:49:14.111Z,49.68
2022-09-12T12:52:02.128Z,50.77
2022-09-12T12:54:49.584Z,51.17
2022-09-12T12:57:23.759Z,51.61
2022-09-12T12:59:56.717Z,51.35
2022-09-12T13:02:31.192Z,51.22
2022-09-12T13:05:02.522Z,50.95
2022-09-12T13:07:35.029Z,50.79
2022-09-12T13:10:04.837Z,51.73
2022-09-12T13:12:37.364Z,51.45
2022-09-12T13:15:47.930Z,51.57
2022-09-12T13:18:23.214Z,51.89
2022-09-12T13:20:58.603Z,51.62
2022-09-12T13:23:28.916Z,52.18
2022-09-12T13:25:58.573Z,53.63
2022-09-12T13:28:27.747Z,54.14
2022-09-12T13:31:12.634Z,53.31
2022-09-12T13:33:44.170Z,53.65
2022-09-12T13:36:36.711Z,54.65
2022-09-12T13:39:15.902Z,55.14
2022-09-12T13:42:19.985Z,54.96
2022-09-12T13:44:52.394Z,55.50
2022-09-12T13:47:28.510Z,56.63
2022-09-12T13:49:58.439Z,57.39
2022-09-12T13:52:29.378Z,56.70
2022-09-12T13:55:00.236Z,56.88
2022-09-12T13:57:31.567Z,56.16
2022-09-12T14:00:02.114Z,56.46
2022-09-12T14:02:31.746Z,56.71
2022-09-12T14:05:10.277Z,56.63
2022-09-12T14:07:54.677Z,57.21
2022-09-12T14:10:28.231Z,57.84
2022-09-12T14:12:58.824Z,57.77
2022-09-12T14:15:30.178Z,57.43
2022-09-12T14:18:01.869Z,57.17
2022-09-12T14:20:33.095Z,57.78
2022-09-12T14:23:03.712Z,58.03
2022-09-12T14:25:39.112Z,59.37
2022-09-12T14:28:07.799Z,60.06
2022-09-12T14:30:37.720Z,58.13
2022-09-12T14:33:22.227Z,59.05
2022-09-12T14:35:52.023Z,59.19
2022-09-12T14:38:25.843Z,59.10
2022-09-12T14:41:01.735Z,59.44
2022-09-12T14:43:31.587Z,59.50
2022-09-12T14:46:02.895Z,60.58
2022-09-12T14:48:36.949Z,61.51
2022-09-12T14:51:06.587Z,62.12
2022-09-12T14:53:36.597Z,62.14
2022-09-12T14:56:10.282Z,62.28
2022-09-12T14:58:38.847Z,62.31
2022-09-12T15:01:25.685Z,61.78
2022-09-12T15:03:57.334Z,61.80
2022-09-12T15:06:29.991Z,60.70
2022-09-12T15:09:00.738Z,61.32
2022-09-12T15:11:29.162Z,62.93
2022-09-12T15:13:57.239Z,63.76
2022-09-12T15:16:25.412Z,63.53
2022-09-12T15:18:53.582Z,61.62
2022-09-12T15:21:23.192Z,61.05
2022-09-12T15:23:53.950Z,61.16
2022-09-12T15:26:23.535Z,62.85
2022-09-12T15:28:52.247Z,63.67
2022-09-12T15:31:25.837Z,63.64
2022-09-12T15:33:55.441Z,63.98
2022-09-12T15:36:26.239Z,64.04
2022-09-12T15:38:54.657Z,64.83
2022-09-12T15:41:25.953Z,65.68
2022-09-12T15:43:54.057Z,65.44
2022-09-12T15:46:22.274Z,66.48
2022-09-12T15:48:50.532Z,66.46
2022-09-12T15:51:20.799Z,65.66
2022-09-12T15:53:51.745Z,65.59
2022-09-12T15:56:21.934Z,65.87
2022-09-12T15:58:59.534Z,65.90
2022-09-12T16:01:29.682Z,66.57
2022-09-12T16:03:58.149Z,66.28
2022-09-12T16:06:27.962Z,68.14
2022-09-12T16:08:57.494Z,68.95
2022-09-12T16:11:27.948Z,69.09
2022-09-12T16:13:57.264Z,69.38
2022-09-12T16:16:25.463Z,69.26
2022-09-12T16:18:53.673Z,69.36
2022-09-12T16:21:21.858Z,69.08
2022-09-12T16:23:50.632Z,69.77
2022-09-12T16:26:20.235Z,70.61
2022-09-12T16:28:48.507Z,71.13
2022-09-12T16:31:17.008Z,72.33
2022-09-12T16:33:45.132Z,72.81
2022-09-12T16:36:15.047Z,73.80
2022-09-12T16:38:43.565Z,72.32
2022-09-12T16:41:11.966Z,73.63
2022-09-12T16:43:41.618Z,73.95
2022-09-12T16:46:11.521Z,72.83
2022-09-12T16:48:48.107Z,74.14
2022-09-12T16:51:21.508Z,74.75
2022-09-12T16:53:50.399Z,74.63
2022-09-12T16:56:19.660Z,74.39
2022-09-12T16:58:49.762Z,74.38
2022-09-12T17:01:19.756Z,73.90
2022-09-12T17:03:48.325Z,72.02
2022-09-12T17:06:18.228Z,72.05
2022-09-12T17:08:48.752Z,72.32
2022-09-12T17:11:19.640Z,74.57
2022-09-12T17:14:04.378Z,75.38
2022-09-12T17:16:34.128Z,75.55
2022-09-12T17:19:02.290Z,74.95
2022-09-12T17:21:30.774Z,75.05
2022-09-12T17:23:59.371Z,74.61
2022-09-12T17:26:27.966Z,74.44
2022-09-12T17:28:57.640Z,74.70
2022-09-12T17:31:26.713Z,75.26
2022-09-12T17:33:58.559Z,75.71
2022-09-12T17:36:27.285Z,76.09
2022-09-12T17:38:55.606Z,75.01
2022-09-12T17:41:25.938Z,74.28
2022-09-12T17:43:57.399Z,73.12
2022-09-12T17:46:31.065Z,72.62
2022-09-12T17:49:01.053Z,70.62
2022-09-12T17:51:31.207Z,61.97
2022-09-12T17:54:01.310Z,60.84
2022-09-12T17:56:31.355Z,58.02
2022-09-12T17:59:00.446Z,58.97
2022-09-12T18:01:48.683Z,61.50
2022-09-12T18:04:17.678Z,65.35
2022-09-12T18:06:48.266Z,69.15
2022-09-12T18:09:18.698Z,71.27
2022-09-12T18:11:48.179Z,73.16
2022-09-12T18:14:17.315Z,73.96
2022-09-12T18:16:47.499Z,74.04
2022-09-12T18:19:16.341Z,74.46
2022-09-12T18:21:44.833Z,73.48
2022-09-12T18:24:13.513Z,73.55
2022-09-12T18:26:43.843Z,73.29
2022-09-12T18:29:13.039Z,72.75
2022-09-12T18:31:41.222Z,71.73
2022-09-12T18:34:13.942Z,71.59
2022-09-12T18:36:42.680Z,71.36
2022-09-12T18:39:11.253Z,70.65
2022-09-12T18:41:39.698Z,70.59
2022-09-12T18:44:08.427Z,70.45
2022-09-12T18:46:37.034Z,70.04
2022-09-12T18:49:07.557Z,69.85
2022-09-12T18:51:40.145Z,69.92
2022-09-12T18:54:12.313Z,70.00
2022-09-12T18:56:43.631Z,68.63
2022-09-12T18:59:14.155Z,65.54
2022-09-12T19:01:43.315Z,63.25
2022-09-12T19:04:13.800Z,61.27
2022-09-12T19:06:45.383Z,60.60
2022-09-12T19:09:15.387Z,59.77
2022-09-12T19:11:49.594Z,59.42
2022-09-12T19:14:17.906Z,59.55
2022-09-12T19:16:46.078Z,60.13
2022-09-12T19:19:14.195Z,59.92
2022-09-12T19:21:43.968Z,59.82
2022-09-12T19:24:14.438Z,59.95
2022-09-12T19:26:43.152Z,59.76
2022-09-12T19:29:14.398Z,60.02
2022-09-12T19:31:42.911Z,59.84
2022-09-12T19:34:12.227Z,59.90
2022-09-12T19:36:45.287Z,59.54
2022-09-12T19:39:17.253Z,60.32
2022-09-12T19:41:46.376Z,60.57
2022-09-12T19:44:15.047Z,60.54
2022-09-12T19:46:43.470Z,59.99
2022-09-12T19:49:13.288Z,59.90
2022-09-12T19:51:41.982Z,59.88
2022-09-12T19:54:10.488Z,59.59
2022-09-12T19:56:40.140Z,59.23
2022-09-12T19:59:08.832Z,59.40
2022-09-12T20:01:37.736Z,59.16
2022-09-12T20:04:06.875Z,58.96
2022-09-12T20:06:35.311Z,58.75
2022-09-12T20:09:03.817Z,58.50
2022-09-12T20:11:31.993Z,58.54
2022-09-12T20:14:01.624Z,58.19
2022-09-12T20:16:30.376Z,58.05
2022-09-12T20:19:00.062Z,58.11
2022-09-12T20:21:31.875Z,59.01
2022-09-12T20:24:05.015Z,59.70
2022-09-12T20:26:33.620Z,59.77
2022-09-12T20:29:03.722Z,59.36
2022-09-12T20:31:32.115Z,58.97
2022-09-12T20:34:00.662Z,58.84
2022-09-12T20:36:29.061Z,58.74
2022-09-12T20:39:00.060Z,58.62
2022-09-12T20:41:31.049Z,58.82
2022-09-12T20:44:00.053Z,58.66
2022-09-12T20:46:29.971Z,58.83
2022-09-12T20:48:58.616Z,58.64
2022-09-12T20:51:29.737Z,58.34
2022-09-12T20:53:59.440Z,58.37
2022-09-12T20:56:28.624Z,58.18
2022-09-12T20:58:57.191Z,57.99
2022-09-12T21:01:26.220Z,57.98
2022-09-12T21:03:55.949Z,57.77
2022-09-12T21:06:24.127Z,58.12
2022-09-12T21:08:52.823Z,58.71
2022-09-12T21:11:21.669Z,59.45
2022-09-12T21:13:50.382Z,59.82
2022-09-12T21:16:20.301Z,60.22
2022-09-12T21:18:49.144Z,60.47
2022-09-12T21:21:18.663Z,61.42
2022-09-12T21:23:47.103Z,61.76
2022-09-12T21:26:15.226Z,62.34
2022-09-12T21:28:43.300Z,63.07
2022-09-12T21:31:11.593Z,63.60
2022-09-12T21:33:40.570Z,64.43
2022-09-12T21:36:09.872Z,64.77
2022-09-12T21:38:39.532Z,64.79
2022-09-12T21:41:09.412Z,65.53
2022-09-12T21:43:38.749Z,65.52
2022-09-12T21:46:08.458Z,64.92
2022-09-12T21:48:37.443Z,65.25
2022-09-12T21:51:06.192Z,64.85
2022-09-12T21:53:35.844Z,64.37
2022-09-12T21:56:07.167Z,64.14
2022-09-12T21:58:35.715Z,64.64
2022-09-12T22:01:05.785Z,63.67
2022-09-12T22:03:34.078Z,63.81
2022-09-12T22:06:03.958Z,63.38
2022-09-12T22:08:34.293Z,62.79
2022-09-12T22:11:08.040Z,62.47
2022-09-12T22:13:39.319Z,62.22
2022-09-12T22:16:07.989Z,62.59
2022-09-12T22:18:37.556Z,62.86
2022-09-12T22:21:08.876Z,63.00
2022-09-12T22:23:54.591Z,62.98
2022-09-12T22:26:22.751Z,63.13
2022-09-12T22:28:52.571Z,63.70
2022-09-12T22:31:21.003Z,64.03
2022-09-12T22:33:50.125Z,64.21
2022-09-12T22:36:18.409Z,64.19
2022-09-12T22:38:46.593Z,64.49
2022-09-12T22:41:14.822Z,64.85
2022-09-12T22:43:43.356Z,64.47
2022-09-12T22:46:13.517Z,64.61
2022-09-12T22:48:42.073Z,64.55
2022-09-12T22:51:10.799Z,64.67
2022-09-12T22:53:39.121Z,64.87
2022-09-12T22:56:07.978Z,65.43
2022-09-12T22:58:37.458Z,65.89
2022-09-12T23:01:06.374Z,66.18
2022-09-12T23:03:37.126Z,67.13
2022-09-12T23:06:06.052Z,68.35
2022-09-12T23:08:35.967Z,69.34
2022-09-12T23:11:04.834Z,70.40
2022-09-12T23:13:33.197Z,71.03
2022-09-12T23:16:01.738Z,71.34
2022-09-12T23:18:30.455Z,71.99
2022-09-12T23:21:01.607Z,72.43
2022-09-12T23:23:30.343Z,72.29
2022-09-12T23:26:06.233Z,72.86
2022-09-12T23:28:34.719Z,73.39
2022-09-12T23:31:03.692Z,73.73
2022-09-12T23:33:33.054Z,74.29
2022-09-12T23:36:03.860Z,74.41
2022-09-12T23:38:32.666Z,74.87
2022-09-12T23:41:01.321Z,75.31
2022-09-12T23:43:30.165Z,75.46
2022-09-12T23:45:59.054Z,76.24
2022-09-12T23:48:27.560Z,76.76
2022-09-12T23:50:56.362Z,77.17
2022-09-12T23:53:25.892Z,77.48
2022-09-12T23:55:54.621Z,78.31
2022-09-12T23:58:22.927Z,78.55
